Time;durP1;ratioP1;P1;durP2;ratioP2;P2;SDS_P1;SDS_P2;PMS_P1;PMS_P2;Temp;Humidity;BMP_temperature;BMP_pressure;BME280_temperature;BME280_humidity;BME280_pressure;Samples;Min_cycle;Max_cycle;Signal;HPM_P1;HPM_P2
2022/04/15 00:00:00;;;;;;;10.70;5.00;;;;;;;13.08;60.20;100855.34;5039986;28;20037;-91
2022/04/15 00:02:26;;;;;;;8.27;4.80;;;;;;;13.24;59.42;100853.50;5037977;28;20046;-93
2022/04/15 00:04:52;;;;;;;11.68;5.38;;;;;;;13.27;59.27;100855.00;5039794;28;20034;-92
2022/04/15 00:07:19;;;;;;;9.10;4.25;;;;;;;13.29;59.15;100855.66;5042187;28;20041;-89
2022/04/15 00:09:51;;;;;;;8.05;5.03;;;;;;;13.40;59.21;100849.94;5026567;28;20068;-88
2022/04/15 00:12:39;;;;;;;9.13;4.53;;;;;;;13.04;60.28;100854.84;5043252;28;20037;-92
2022/04/15 00:21:31;;;;;;;8.47;4.27;;;;;;;12.85;61.61;100856.06;1286448;26;20049;-93
2022/04/15 00:24:14;;;;;;;8.88;4.38;;;;;;;12.81;61.80;100851.25;5242105;23;20052;-92
2022/04/15 00:27:35;;;;;;;;;;;;;;;;;;;;;
2022/04/15 00:30:19;;;;;;;9.40;4.20;;;;;;;12.75;62.14;100858.06;4916003;29;20128;-88
2022/04/15 00:32:46;;;;;;;9.73;4.07;;;;;;;12.73;62.28;100862.72;4881834;29;20412;-88
2022/04/15 00:35:24;;;;;;;8.63;4.35;;;;;;;12.55;62.84;100858.59;4911138;29;20431;-91
2022/04/15 00:37:55;;;;;;;7.70;4.55;;;;;;;12.52;63.32;100854.44;4911226;29;20036;-92
2022/04/15 00:40:21;;;;;;;8.32;4.28;;;;;;;12.36;63.56;100860.56;4933875;29;20127;-92
2022/04/15 00:42:47;;;;;;;7.38;4.40;;;;;;;12.54;62.54;100862.22;4942997;29;20055;-93
2022/04/15 00:45:42;;;;;;;10.82;4.20;;;;;;;12.52;62.47;100854.44;4965072;29;20504;-91
2022/04/15 00:48:14;;;;;;;11.52;4.38;;;;;;;12.72;61.52;100857.59;4961521;28;20031;-92
2022/04/15 00:50:42;;;;;;;11.10;4.57;;;;;;;12.79;60.93;100858.56;4953643;28;20034;-91
2022/04/15 00:53:10;;;;;;;12.82;4.47;;;;;;;12.84;60.88;100856.22;4953866;28;20051;-92
2022/04/15 00:55:40;;;;;;;10.43;4.85;;;;;;;12.75;61.58;100850.09;4918213;29;20217;-92
2022/04/15 00:58:07;;;;;;;9.45;4.47;;;;;;;12.74;61.51;100843.09;4917209;29;20135;-93
2022/04/15 01:00:42;;;;;;;11.00;4.47;;;;;;;12.37;62.68;100854.25;4957994;28;20629;-91
2022/04/15 01:03:07;;;;;;;12.45;4.40;;;;;;;12.48;62.81;100852.25;4942651;29;20035;-91
2022/04/15 01:05:34;;;;;;;7.65;3.83;;;;;;;12.25;64.00;100846.78;4936545;28;20076;-90
2022/04/15 01:08:02;;;;;;;7.18;3.75;;;;;;;12.33;63.63;100839.63;5023100;28;20483;-92
2022/04/15 01:10:29;;;;;;;12.07;4.18;;;;;;;12.42;63.08;100845.78;5042931;28;20034;-90
2022/04/15 01:12:57;;;;;;;11.73;4.13;;;;;;;12.29;63.93;100848.13;5050398;28;20636;-91
2022/04/15 01:15:32;;;;;;;10.30;4.97;;;;;;;12.12;65.18;100835.81;5041241;28;20037;-91
2022/04/15 01:17:58;;;;;;;8.25;4.68;;;;;;;11.97;66.18;100837.41;5048017;28;20037;-90
2022/04/15 01:20:26;;;;;;;13.25;4.55;;;;;;;12.13;65.35;100832.16;5023464;28;20033;-91
2022/04/15 01:23:13;;;;;;;14.05;4.93;;;;;;;12.26;64.57;100837.81;5005945;28;20037;-91
2022/04/15 01:25:39;;;;;;;8.40;4.22;;;;;;;12.37;63.79;100834.81;5041467;28;20033;-92
2022/04/15 01:28:06;;;;;;;11.43;4.63;;;;;;;12.41;64.11;100831.66;5041491;28;20034;-90
2022/04/15 01:30:32;;;;;;;9.48;4.25;;;;;;;12.42;64.03;100827.19;5023421;28;20045;-91
2022/04/15 01:32:58;;;;;;;8.95;4.45;;;;;;;12.08;65.86;100829.16;5045257;28;20037;-88
2022/04/15 01:35:24;;;;;;;8.25;4.18;;;;;;;11.99;66.62;100830.13;5044755;28;20041;-91
2022/04/15 01:37:50;;;;;;;9.70;4.35;;;;;;;12.01;66.54;100833.44;5046474;28;20119;-91
2022/04/15 01:40:40;;;;;;;7.45;4.20;;;;;;;11.97;66.46;100838.25;5048364;28;20049;-90
2022/04/15 01:43:17;;;;;;;8.82;4.40;;;;;;;11.93;67.14;100836.09;5051503;28;20076;-89
2022/04/15 01:45:43;;;;;;;16.92;4.30;;;;;;;12.14;66.28;100839.13;5037179;28;20042;-88
2022/04/15 01:48:10;;;;;;;8.48;3.55;;;;;;;12.26;65.37;100843.13;5052432;28;20037;-89
2022/04/15 01:50:36;;;;;;;9.60;4.55;;;;;;;12.38;64.68;100839.13;5044614;28;20037;-90
2022/04/15 01:53:02;;;;;;;9.25;4.30;;;;;;;12.43;64.55;100839.44;5039981;28;20049;-89
2022/04/15 01:55:29;;;;;;;12.43;4.90;;;;;;;12.25;64.95;100846.78;5037514;28;20116;-92
2022/04/15 01:57:55;;;;;;;9.02;4.50;;;;;;;12.12;65.49;100841.94;5040805;28;20113;-90
2022/04/15 02:00:22;;;;;;;8.93;4.20;;;;;;;12.24;64.42;100845.94;5025614;28;20044;-91
2022/04/15 02:02:49;;;;;;;14.40;4.93;;;;;;;12.12;65.68;100841.13;5039727;28;20034;-87
2022/04/15 02:05:15;;;;;;;9.02;3.97;;;;;;;12.34;64.91;100845.78;5021362;28;20041;-89
2022/04/15 02:07:40;;;;;;;9.38;4.47;;;;;;;12.20;65.97;100849.06;5036482;28;20064;-92
2022/04/15 02:10:07;;;;;;;10.15;4.47;;;;;;;12.04;66.80;100849.06;5037300;28;20029;-89
2022/04/15 02:12:35;;;;;;;9.43;4.65;;;;;;;11.86;67.97;100846.56;5036395;28;20045;-90
2022/04/15 02:15:04;;;;;;;9.15;5.03;;;;;;;11.84;68.01;100849.34;5036457;28;20079;-91
2022/04/15 02:17:30;;;;;;;9.60;4.47;;;;;;;11.77;68.13;100847.50;5036906;28;20091;-89
2022/04/15 02:19:56;;;;;;;17.98;5.13;;;;;;;11.90;68.05;100853.19;5050775;28;20034;-89
2022/04/15 02:22:24;;;;;;;10.25;4.65;;;;;;;11.90;68.06;100842.56;5052186;28;20460;-91
2022/04/15 02:25:11;;;;;;;12.65;4.97;;;;;;;11.82;68.40;100851.34;5054618;28;20029;-90
2022/04/15 02:27:37;;;;;;;10.73;4.97;;;;;;;11.75;68.27;100845.03;5070861;23;20591;-89
2022/04/15 02:30:12;;;;;;;10.45;5.10;;;;;;;11.68;68.54;100853.75;5043782;28;20029;-89
2022/04/15 02:32:37;;;;;;;13.77;4.67;;;;;;;11.55;68.99;100853.38;5046236;28;20042;-91
2022/04/15 02:35:44;;;;;;;10.93;5.45;;;;;;;11.41;69.46;100846.84;5068101;28;20038;-91
2022/04/15 02:38:24;;;;;;;17.15;5.70;;;;;;;11.64;68.28;100844.44;5178893;22;20037;-89
2022/04/15 02:40:50;;;;;;;12.57;5.55;;;;;;;11.70;68.10;100838.50;5057325;28;20068;-90
2022/04/15 02:43:31;;;;;;;14.93;5.85;;;;;;;11.97;66.82;100843.56;5056392;28;20036;-90
2022/04/15 02:46:24;;;;;;;14.40;5.50;;;;;;;11.85;67.98;100839.56;5055957;28;20085;-91
2022/04/15 02:49:06;;;;;;;14.98;5.72;;;;;;;11.73;68.40;100846.19;5389101;23;20038;-91
2022/04/15 02:54:20;;;;;;;14.38;5.35;;;;;;;11.35;70.93;100836.88;4421721;23;20041;-92
2022/04/15 02:59:27;;;;;;;13.30;5.75;;;;;;;11.34;71.81;100840.50;5685675;23;20036;-92
2022/04/15 03:01:56;;;;;;;12.35;5.00;;;;;;;11.34;70.85;100841.34;4988836;28;20044;-91
2022/04/15 03:04:23;;;;;;;13.65;5.57;;;;;;;11.17;72.44;100836.16;4996359;28;20106;-92
2022/04/15 03:06:49;;;;;;;14.07;5.75;;;;;;;11.18;72.50;100835.13;4984994;28;20114;-91
2022/04/15 03:09:15;;;;;;;13.63;5.00;;;;;;;11.14;72.91;100836.44;5000761;28;20097;-91
2022/04/15 03:11:41;;;;;;;13.98;5.72;;;;;;;11.01;74.03;100834.22;5001118;28;20041;-90
2022/04/15 03:14:07;;;;;;;14.13;6.00;;;;;;;10.79;75.14;100834.75;4968496;28;20052;-90
2022/04/15 03:16:33;;;;;;;12.40;5.20;;;;;;;10.84;74.78;100827.13;4984029;28;20125;-94
2022/04/15 03:19:00;;;;;;;10.45;5.25;;;;;;;10.83;75.00;100834.28;4985111;28;20536;-92
2022/04/15 03:21:25;;;;;;;12.75;5.68;;;;;;;10.77;75.23;100836.72;4986784;28;20069;-91
2022/04/15 03:23:55;;;;;;;9.55;4.75;;;;;;;10.82;75.27;100832.63;4991264;28;20520;-90
2022/04/15 03:26:21;;;;;;;9.18;5.05;;;;;;;10.93;74.55;100833.34;5001012;28;20093;-88
2022/04/15 03:28:47;;;;;;;11.05;5.15;;;;;;;10.97;73.92;100832.06;4984339;28;20046;-92
2022/04/15 03:31:13;;;;;;;15.52;5.50;;;;;;;10.92;74.25;100836.97;4986698;28;20485;-91
2022/04/15 03:33:46;;;;;;;11.95;5.25;;;;;;;10.66;75.90;100829.88;4973766;28;20151;-92
2022/04/15 03:36:12;;;;;;;13.88;5.50;;;;;;;10.88;75.05;100829.34;4990338;28;20050;-90
2022/04/15 03:41:22;;;;;;;14.02;5.55;;;;;;;10.78;76.16;100823.31;4902287;26;19924;-92
2022/04/15 03:43:49;;;;;;;12.93;6.22;;;;;;;10.82;76.01;100834.44;5006888;28;20038;-92
2022/04/15 03:46:16;;;;;;;13.80;6.15;;;;;;;10.89;75.36;100833.66;5009415;28;20141;-90
2022/04/15 03:48:47;;;;;;;12.75;6.30;;;;;;;11.01;74.56;100842.16;5015051;28;20045;-90
2022/04/15 03:51:14;;;;;;;17.45;6.25;;;;;;;10.88;75.18;100839.09;5011976;28;20026;-90
2022/04/15 03:53:50;;;;;;;13.77;5.60;;;;;;;11.03;74.48;100855.28;5001712;28;20026;-91
2022/04/15 03:56:18;;;;;;;10.27;6.28;;;;;;;11.18;73.88;100845.75;4983088;28;20034;-87
2022/04/15 03:58:43;;;;;;;119.68;65.40;;;;;;;11.28;74.04;100841.16;5031289;28;20048;-88
2022/04/15 04:01:09;;;;;;;16.90;6.70;;;;;;;10.98;74.92;100842.50;5020414;28;20381;-86
2022/04/15 04:03:34;;;;;;;27.38;13.40;;;;;;;10.93;76.04;100843.94;5017346;28;20061;-85
2022/04/15 04:06:01;;;;;;;17.40;6.22;;;;;;;10.81;76.45;100846.03;5018700;28;20515;-87
2022/04/15 04:08:27;;;;;;;18.70;7.60;;;;;;;10.86;76.04;100841.94;5018299;28;20029;-88
2022/04/15 04:10:53;;;;;;;20.90;6.78;;;;;;;10.89;75.61;100844.28;5016698;28;20045;-87
2022/04/15 04:13:18;;;;;;;16.15;6.28;;;;;;;10.76;76.45;100845.66;5000393;28;20041;-88
2022/04/15 04:15:44;;;;;;;20.15;6.78;;;;;;;10.89;75.72;100854.88;4998825;28;20547;-87
2022/04/15 04:18:14;;;;;;;13.88;7.18;;;;;;;10.98;75.62;100857.56;4982916;28;20046;-88
2022/04/15 04:20:41;;;;;;;18.35;7.82;;;;;;;11.18;74.96;100866.97;5000057;28;20042;-87
2022/04/15 04:23:06;;;;;;;46.33;8.13;;;;;;;11.07;74.68;100869.91;4999520;28;20034;-87
2022/04/15 04:25:32;;;;;;;28.98;6.57;;;;;;;10.69;76.28;100866.66;5017421;28;20034;-86
2022/04/15 04:27:57;;;;;;;24.35;7.13;;;;;;;10.78;76.53;100867.53;4999318;28;20033;-87
2022/04/15 04:30:23;;;;;;;17.88;7.60;;;;;;;10.60;77.20;100867.59;5017180;28;20033;-89
2022/04/15 04:32:49;;;;;;;18.77;7.18;;;;;;;10.51;77.70;100863.19;5019239;28;20041;-88
2022/04/15 04:35:17;;;;;;;17.77;6.57;;;;;;;10.42;78.10;100872.06;5018187;28;20485;-90
2022/04/15 04:37:44;;;;;;;16.98;6.60;;;;;;;10.35;79.05;100878.94;5000352;28;20052;-89
2022/04/15 04:40:10;;;;;;;12.55;6.53;;;;;;;10.41;79.38;100880.19;5020445;28;20056;-88
2022/04/15 04:42:36;;;;;;;19.17;7.10;;;;;;;10.40;77.85;100894.41;5016148;28;20557;-86
2022/04/15 04:45:02;;;;;;;13.40;6.60;;;;;;;10.21;78.05;100895.38;5022473;28;20081;-88
2022/04/15 04:47:31;;;;;;;18.27;7.40;;;;;;;10.22;77.53;100902.34;5003458;28;20381;-89
2022/04/15 04:49:57;;;;;;;19.27;6.82;;;;;;;10.32;77.01;100900.44;5022321;28;20026;-90
2022/04/15 04:52:23;;;;;;;17.63;7.45;;;;;;;10.37;76.79;100908.78;5017155;28;20034;-87
2022/04/15 04:54:49;;;;;;;17.08;6.93;;;;;;;10.48;76.40;100905.06;4984800;28;20038;-91
2022/04/15 04:57:15;;;;;;;13.48;7.28;;;;;;;10.57;75.83;100910.28;5000501;28;20065;-92
2022/04/15 04:59:41;;;;;;;17.40;6.93;;;;;;;10.59;75.69;100913.63;5019005;28;20037;-93
2022/04/15 05:02:12;;;;;;;16.15;7.43;;;;;;;10.63;75.61;100915.00;5000123;28;20044;-91
2022/04/15 05:04:40;;;;;;;17.23;6.97;;;;;;;10.64;75.65;100919.28;4999643;28;20096;-92
2022/04/15 05:07:06;;;;;;;18.98;7.00;;;;;;;10.81;74.70;100923.75;5000257;28;20079;-90
2022/04/15 05:09:31;;;;;;;16.42;7.85;;;;;;;10.96;74.18;100920.53;5003898;28;20515;-89
2022/04/15 05:11:57;;;;;;;14.52;7.30;;;;;;;11.07;73.68;100930.91;5020368;28;20026;-89
2022/04/15 05:14:23;;;;;;;16.02;7.72;;;;;;;11.33;72.23;100937.06;5018408;28;20032;-90
2022/04/15 05:16:48;;;;;;;22.60;7.32;;;;;;;11.56;70.76;100943.47;5017086;28;20403;-86
2022/04/15 05:19:14;;;;;;;17.27;8.45;;;;;;;11.63;70.29;100936.56;4999545;28;20141;-89
2022/04/15 05:21:40;;;;;;;19.73;7.32;;;;;;;12.07;69.28;100933.75;5036296;28;20049;-88
2022/04/15 05:24:07;;;;;;;20.73;7.53;;;;;;;12.78;64.96;100934.03;5020571;28;20030;-89
2022/04/15 05:26:33;;;;;;;18.67;6.85;;;;;;;12.54;65.20;100937.50;5027236;28;20030;-90
2022/04/15 05:29:00;;;;;;;22.55;7.57;;;;;;;12.59;65.14;100935.19;5034339;28;20053;-87
2022/04/15 05:31:26;;;;;;;15.95;6.53;;;;;;;12.75;63.97;100940.53;5030892;28;20048;-88
2022/04/15 05:33:52;;;;;;;23.00;7.20;;;;;;;12.86;63.06;100949.97;5031033;28;20034;-85
2022/04/15 05:36:17;;;;;;;14.65;6.32;;;;;;;12.85;62.81;100956.31;5027327;28;20061;-83
2022/04/15 05:38:43;;;;;;;19.30;6.85;;;;;;;12.78;63.56;100945.50;5024047;28;20481;-85
2022/04/15 05:41:08;;;;;;;14.23;6.53;;;;;;;13.51;60.67;100947.28;5014893;28;20489;-86
2022/04/15 05:43:34;;;;;;;21.83;6.60;;;;;;;14.06;58.06;100957.88;5016484;28;20117;-83
2022/04/15 05:46:00;;;;;;;20.67;6.28;;;;;;;15.23;55.41;100948.56;5015375;28;20041;-83
2022/04/15 05:48:25;;;;;;;16.73;6.43;;;;;;;16.35;51.36;100955.44;5010787;28;20038;-85
2022/04/15 05:50:53;;;;;;;16.42;6.28;;;;;;;15.57;52.78;100955.28;5009668;28;20049;-82
2022/04/15 05:53:19;;;;;;;17.95;5.45;;;;;;;16.94;49.15;100956.88;5036196;28;20038;-85
2022/04/15 05:55:45;;;;;;;12.82;6.35;;;;;;;17.57;46.99;100963.16;5026258;28;20037;-86
2022/04/15 05:58:13;;;;;;;22.67;6.38;;;;;;;17.22;46.45;100964.13;5015217;28;20041;-84
2022/04/15 06:00:39;;;;;;;18.38;6.38;;;;;;;17.96;45.89;100963.38;5013752;28;20026;-86
2022/04/15 06:03:07;;;;;;;20.25;6.00;;;;;;;17.10;47.06;100971.03;5013986;28;20045;-85
2022/04/15 06:05:35;;;;;;;22.75;6.38;;;;;;;15.92;49.91;100968.72;5014234;28;20030;-85
2022/04/15 06:08:00;;;;;;;18.23;6.28;;;;;;;15.70;50.59;100971.50;5013927;28;20044;-84
2022/04/15 06:10:26;;;;;;;13.52;6.30;;;;;;;15.77;51.49;100975.91;5016411;28;20038;-84
2022/04/15 06:12:54;;;;;;;23.75;6.63;;;;;;;15.76;51.75;100974.25;5018093;28;20101;-83
2022/04/15 06:15:31;;;;;;;19.30;6.10;;;;;;;16.06;50.94;100971.56;4980197;28;20053;-86
2022/04/15 06:17:58;;;;;;;18.75;6.32;;;;;;;17.16;47.98;100976.44;4997179;28;20125;-85
2022/04/15 06:20:24;;;;;;;17.05;5.97;;;;;;;18.21;45.70;100976.28;5015061;28;20034;-86
2022/04/15 06:22:50;;;;;;;12.38;6.18;;;;;;;18.15;45.42;100977.91;5016708;28;20069;-85
2022/04/15 06:25:16;;;;;;;17.15;6.60;;;;;;;18.82;42.66;100969.88;5001972;28;20060;-88
2022/04/15 06:27:41;;;;;;;17.70;6.28;;;;;;;18.87;42.83;100972.75;5009173;28;20018;-84
2022/04/15 06:30:09;;;;;;;19.02;6.63;;;;;;;20.58;39.79;100973.22;5017465;28;20456;-84
2022/04/15 06:32:38;;;;;;;19.08;5.82;;;;;;;20.11;40.33;100969.09;5018105;28;20073;-86
2022/04/15 06:35:05;;;;;;;13.18;6.75;;;;;;;18.70;42.11;100986.75;4991582;28;20034;-85
2022/04/15 06:37:30;;;;;;;19.15;7.15;;;;;;;18.82;41.88;100977.09;4981605;28;20038;-90
2022/04/15 06:39:56;;;;;;;11.27;5.95;;;;;;;18.30;43.56;100970.53;4982182;28;20038;-86
2022/04/15 06:42:30;;;;;;;14.88;6.53;;;;;;;18.91;41.88;100968.63;5009200;28;20061;-88
2022/04/15 06:44:55;;;;;;;16.25;6.57;;;;;;;19.31;41.37;100969.47;4986451;28;20026;-87
2022/04/15 06:47:21;;;;;;;17.42;6.55;;;;;;;19.52;41.16;100966.56;4994633;28;20034;-86
2022/04/15 06:49:47;;;;;;;17.63;6.78;;;;;;;18.69;42.26;100972.53;4996622;28;20034;-90
2022/04/15 06:52:14;;;;;;;25.75;6.10;;;;;;;19.27;41.21;100968.22;4996675;28;20405;-87
2022/04/15 06:54:42;;;;;;;16.95;6.10;;;;;;;19.46;40.89;100969.25;4980143;28;20035;-88
2022/04/15 06:57:09;;;;;;;14.02;6.28;;;;;;;19.92;40.02;100972.66;4997946;28;20181;-85
2022/04/15 06:59:35;;;;;;;17.60;5.40;;;;;;;20.02;39.74;100967.66;4995101;28;20035;-86
2022/04/15 07:02:01;;;;;;;16.10;5.25;;;;;;;20.54;39.31;100977.41;4995405;28;20044;-86
2022/04/15 07:04:27;;;;;;;14.48;5.50;;;;;;;19.51;41.25;100966.78;4995120;28;20038;-84
2022/04/15 07:06:54;;;;;;;14.10;5.63;;;;;;;19.66;41.11;100970.03;4996195;28;20088;-90
2022/04/15 07:09:20;;;;;;;15.27;5.70;;;;;;;19.61;41.29;100967.19;4997117;28;20437;-90
2022/04/15 07:11:48;;;;;;;12.73;5.82;;;;;;;19.52;40.87;100974.63;4977499;28;20121;-92
2022/04/15 07:14:14;;;;;;;14.13;5.38;;;;;;;19.76;41.78;100972.28;4993849;28;20046;-84
2022/04/15 07:16:39;;;;;;;12.20;5.78;;;;;;;20.89;39.34;100971.56;4993540;28;20378;-90
2022/04/15 07:19:08;;;;;;;13.82;5.65;;;;;;;21.17;38.95;100977.41;4994823;28;20524;-85
2022/04/15 07:21:34;;;;;;;15.05;6.22;;;;;;;20.93;39.77;100970.91;4999505;28;20032;-88
2022/04/15 07:24:00;;;;;;;21.08;5.43;;;;;;;20.66;39.83;100980.22;4997719;28;20031;-89
2022/04/15 07:26:25;;;;;;;13.00;5.65;;;;;;;20.98;38.22;100971.06;4980525;28;20493;-87
2022/04/15 07:28:51;;;;;;;13.63;6.05;;;;;;;21.16;39.01;100970.34;5003252;28;20497;-90
2022/04/15 07:31:17;;;;;;;20.27;6.53;;;;;;;22.24;36.70;100968.00;5001914;28;20034;-91
2022/04/15 07:33:42;;;;;;;15.60;6.07;;;;;;;21.51;37.16;100968.78;4965779;28;20026;-85
2022/04/15 07:39:05;;;;;;;13.25;6.53;;;;;;;22.09;36.23;100966.50;5000397;28;20113;-90
2022/04/15 07:41:30;;;;;;;11.43;5.68;;;;;;;21.74;37.42;100962.75;4995754;28;20038;-85
2022/04/15 07:43:56;;;;;;;16.17;6.82;;;;;;;21.29;38.45;100951.34;5004777;28;20026;-88
2022/04/15 07:46:29;;;;;;;16.67;6.90;;;;;;;21.70;37.58;100958.84;4977409;28;20035;-84
2022/04/15 07:48:54;;;;;;;15.07;7.23;;;;;;;21.80;37.32;100956.44;4999199;28;20035;-87
2022/04/15 07:51:20;;;;;;;18.33;7.63;;;;;;;22.52;36.86;100955.53;4992591;28;20034;-83
2022/04/15 07:53:51;;;;;;;14.60;8.55;;;;;;;21.55;37.67;100955.66;4982719;28;20011;-91
2022/04/15 07:56:23;;;;;;;21.10;9.57;;;;;;;21.21;38.78;100950.81;4994813;28;20030;-87
2022/04/15 07:58:50;;;;;;;22.67;11.05;;;;;;;21.25;38.53;100957.41;4993423;28;20069;-88
2022/04/15 08:01:17;;;;;;;21.42;9.75;;;;;;;21.68;38.23;100947.44;4991245;28;20034;-84
2022/04/15 08:03:43;;;;;;;19.45;9.38;;;;;;;22.85;35.72;100963.19;4993530;28;20046;-86
2022/04/15 08:06:14;;;;;;;24.17;9.35;;;;;;;22.68;36.94;100959.50;4966034;28;20039;-85
2022/04/15 08:08:40;;;;;;;16.88;9.70;;;;;;;22.77;37.32;100955.41;4976798;28;20046;-83
2022/04/15 08:11:06;;;;;;;21.27;9.60;;;;;;;23.79;35.50;100962.19;4991091;28;20038;-84
2022/04/15 08:13:32;;;;;;;21.50;9.50;;;;;;;23.22;36.37;100965.69;4974298;28;20034;-86
2022/04/15 08:15:59;;;;;;;26.98;9.32;;;;;;;23.39;36.25;100955.84;4989480;28;20035;-85
2022/04/15 08:18:25;;;;;;;24.60;10.55;;;;;;;23.70;33.42;100952.75;4941250;28;20035;-82
2022/04/15 08:20:52;;;;;;;107.70;56.92;;;;;;;25.13;31.02;100964.22;4986826;28;20437;-84
2022/04/15 08:23:18;;;;;;;30.48;11.50;;;;;;;24.01;32.35;100970.50;4979511;28;20572;-83
2022/04/15 08:25:48;;;;;;;21.60;10.60;;;;;;;24.36;32.55;100954.16;4963954;28;20031;-85
2022/04/15 08:28:13;;;;;;;18.90;10.82;;;;;;;24.97;31.79;100956.91;4980606;28;20042;-84
2022/04/15 08:30:39;;;;;;;24.02;11.60;;;;;;;24.95;32.55;100960.94;4976760;28;20094;-86
2022/04/15 08:33:06;;;;;;;19.05;11.13;;;;;;;24.98;32.86;100960.44;4978029;28;20039;-85
2022/04/15 08:35:32;;;;;;;19.40;9.52;;;;;;;25.06;32.99;100960.84;4960338;28;20039;-85
2022/04/15 08:37:58;;;;;;;21.17;11.15;;;;;;;26.20;31.79;100959.25;4961692;28;20038;-88
2022/04/15 08:40:31;;;;;;;20.60;10.90;;;;;;;25.45;32.06;100950.06;4980981;28;20034;-86
2022/04/15 08:43:04;;;;;;;20.05;11.00;;;;;;;25.26;32.45;100956.81;4972210;28;20038;-89
2022/04/15 08:45:33;;;;;;;19.20;9.85;;;;;;;25.83;31.78;100951.97;5004431;28;20064;-88
2022/04/15 08:48:02;;;;;;;26.50;10.63;;;;;;;26.18;31.99;100958.69;4980123;28;20045;-88
2022/04/15 08:50:32;;;;;;;23.63;12.00;;;;;;;26.63;30.62;100957.53;4962140;28;20689;-86
2022/04/15 08:52:59;;;;;;;20.52;10.27;;;;;;;27.11;30.40;100959.34;4983120;28;20069;-87
2022/04/15 08:55:28;;;;;;;22.05;11.65;;;;;;;26.01;30.96;100946.22;4988039;28;20057;-88
2022/04/15 08:57:57;;;;;;;26.63;11.90;;;;;;;26.00;31.26;100948.13;4973425;28;20042;-86
2022/04/15 09:00:24;;;;;;;22.25;12.13;;;;;;;26.05;30.79;100945.44;4992589;28;20050;-88
2022/04/15 09:02:52;;;;;;;22.80;12.13;;;;;;;25.64;31.60;100938.69;4995346;28;20035;-88
2022/04/15 09:05:19;;;;;;;25.08;11.48;;;;;;;25.34;32.26;100942.84;4952327;28;20046;-87
2022/04/15 09:07:45;;;;;;;21.35;11.35;;;;;;;25.88;31.99;100938.47;5000617;28;20125;-88
2022/04/15 09:10:16;;;;;;;23.58;12.05;;;;;;;26.16;31.32;100938.25;4991465;28;20058;-88
2022/04/15 09:12:42;;;;;;;21.17;11.93;;;;;;;26.95;29.80;100949.41;4977204;28;20038;-89
2022/04/15 09:15:08;;;;;;;22.00;9.95;;;;;;;26.69;29.82;100942.91;4966643;28;20039;-87
2022/04/15 09:17:52;;;;;;;22.17;11.20;;;;;;;26.74;28.71;100942.97;4988710;28;20035;-86
2022/04/15 09:20:20;;;;;;;21.25;10.13;;;;;;;26.57;29.73;100936.81;4971766;28;20038;-89
2022/04/15 09:22:47;;;;;;;21.38;10.98;;;;;;;27.07;29.64;100937.28;4973355;28;20030;-87
2022/04/15 09:29:03;;;;;;;22.65;11.52;;;;;;;25.30;30.83;100933.53;5009501;28;20070;-92
2022/04/15 09:31:29;;;;;;;29.10;10.88;;;;;;;25.75;30.24;100933.41;4993256;28;20049;-88
2022/04/15 09:34:02;;;;;;;21.55;10.15;;;;;;;26.66;29.09;100935.25;4993232;28;20054;-89
2022/04/15 09:36:40;;;;;;;22.15;10.43;;;;;;;27.04;28.25;100931.53;4978315;28;20042;-89
2022/04/15 09:39:16;;;;;;;26.50;11.73;;;;;;;25.32;31.93;100921.38;5014875;28;20034;-91
2022/04/15 09:41:54;;;;;;;27.83;10.57;;;;;;;25.84;31.62;100930.00;4981424;28;20059;-87
2022/04/15 09:44:22;;;;;;;25.80;11.98;;;;;;;26.02;31.72;100929.66;4998480;28;20042;-89
2022/04/15 09:46:54;;;;;;;28.67;12.35;;;;;;;26.96;30.57;100924.69;4997116;28;20042;-91
2022/04/15 09:49:20;;;;;;;27.63;10.80;;;;;;;27.84;29.41;100920.31;5000220;28;20042;-88
2022/04/15 09:51:51;;;;;;;26.65;11.30;;;;;;;27.52;29.38;100916.91;4969603;28;20026;-87
2022/04/15 09:54:28;;;;;;;24.45;10.90;;;;;;;27.03;29.14;100925.28;5010564;28;20053;-90
2022/04/15 09:56:57;;;;;;;24.80;11.30;;;;;;;27.31;28.27;100915.13;4996529;28;20039;-86
2022/04/15 09:59:29;;;;;;;19.63;9.70;;;;;;;27.29;28.68;100917.28;4996660;28;20030;-86
2022/04/15 10:01:57;;;;;;;26.57;9.73;;;;;;;27.68;27.41;100911.28;4969888;28;20054;-82
2022/04/15 10:04:24;;;;;;;23.30;9.82;;;;;;;27.52;27.53;100906.00;4976810;28;20062;-85
2022/04/15 10:06:51;;;;;;;23.50;10.60;;;;;;;28.14;25.41;100904.09;5001164;28;20042;-82
2022/04/15 10:09:20;;;;;;;19.35;9.80;;;;;;;27.41;25.86;100896.13;4983368;28;20066;-90
2022/04/15 10:14:33;;;;;;;22.50;9.95;;;;;;;28.14;25.27;100892.38;4890103;23;20025;-90
2022/04/15 10:17:04;;;;;;;18.80;9.43;;;;;;;28.20;25.15;100881.25;5127354;23;20043;-90
2022/04/15 10:22:11;;;;;;;29.77;11.50;;;;;;;28.14;26.25;100893.19;4974725;28;20067;-90
2022/04/15 10:27:52;;;;;;;25.08;10.90;;;;;;;27.20;26.79;100876.13;3788184;26;20042;-89
2022/04/15 10:30:22;;;;;;;27.45;10.65;;;;;;;27.30;27.41;100880.81;4934608;28;20052;-90
2022/04/15 10:32:57;;;;;;;23.50;10.50;;;;;;;28.01;26.86;100881.97;4947038;28;20036;-92
2022/04/15 10:35:36;;;;;;;28.02;10.02;;;;;;;27.70;26.98;100881.06;5116475;23;20058;-90
2022/04/15 10:40:43;;;;;;;22.27;10.32;;;;;;;27.20;27.57;100878.88;4996993;28;20099;-88
2022/04/15 10:43:22;;;;;;;26.75;12.73;;;;;;;27.36;27.11;100871.59;4997248;28;20065;-89
2022/04/15 10:45:51;;;;;;;28.35;10.70;;;;;;;27.37;26.42;100870.53;4958255;28;20505;-88
2022/04/15 10:48:32;;;;;;;23.17;10.63;;;;;;;27.68;27.29;100869.59;4997175;28;20030;-88
2022/04/15 10:51:33;;;;;;;23.77;10.32;;;;;;;27.90;26.48;100866.69;4984666;23;20098;-83
2022/04/15 10:54:48;;;;;;;23.00;10.68;;;;;;;28.03;27.47;100864.28;4975102;28;20390;-80
2022/04/15 10:57:46;;;;;;;26.15;11.30;;;;;;;27.66;27.65;100860.88;4927936;29;20090;-88
2022/04/15 11:03:32;;;;;;;29.00;10.30;;;;;;;27.69;26.27;100857.63;5022220;23;20034;-87
2022/04/15 11:06:04;;;;;;;31.98;11.98;;;;;;;27.44;27.54;100857.53;4926990;29;20052;-88
2022/04/15 11:08:47;;;;;;;25.27;11.35;;;;;;;28.19;26.22;100854.25;4924636;29;20040;-87
2022/04/15 11:11:12;;;;;;;26.70;11.13;;;;;;;28.90;24.87;100849.63;4922324;29;20059;-90
2022/04/15 11:13:39;;;;;;;26.38;11.43;;;;;;;28.97;25.03;100847.44;4922601;29;20067;-88
2022/04/15 11:16:15;;;;;;;23.85;10.30;;;;;;;29.44;24.95;100843.50;4932543;28;20047;-88
2022/04/15 11:18:50;;;;;;;27.92;12.18;;;;;;;29.19;24.75;100837.03;4977622;28;20054;-87
2022/04/15 11:21:18;;;;;;;28.48;11.30;;;;;;;29.21;25.35;100837.56;4964147;28;20093;-89
2022/04/15 11:24:05;;;;;;;36.95;13.02;;;;;;;28.97;24.99;100841.97;4962622;28;20042;-90
2022/04/15 11:26:33;;;;;;;32.03;11.90;;;;;;;28.68;25.33;100839.03;4976413;28;20091;-89
2022/04/15 11:29:05;;;;;;;30.05;12.15;;;;;;;28.95;25.00;100843.34;4982640;28;20069;-87
2022/04/15 11:31:51;;;;;;;38.72;12.73;;;;;;;29.86;23.45;100838.44;4975510;28;20031;-91
2022/04/15 11:34:24;;;;;;;29.52;12.52;;;;;;;29.65;23.80;100837.69;4967571;28;20042;-88
2022/04/15 11:36:56;;;;;;;31.33;13.20;;;;;;;29.09;24.99;100828.88;4981272;28;20114;-86
2022/04/15 11:39:25;;;;;;;33.75;12.75;;;;;;;28.84;24.66;100826.16;4980947;28;20034;-87
2022/04/15 11:41:57;;;;;;;33.78;14.23;;;;;;;28.77;24.60;100820.19;4984407;28;20030;-89
2022/04/15 11:44:28;;;;;;;32.10;13.38;;;;;;;28.29;25.08;100824.28;4984991;28;20486;-90
2022/04/15 11:46:54;;;;;;;34.47;13.63;;;;;;;27.70;26.36;100815.69;4957917;28;20035;-90
2022/04/15 11:49:27;;;;;;;31.67;13.27;;;;;;;26.20;29.33;100811.72;4985724;28;20078;-90
2022/04/15 11:52:00;;;;;;;27.83;12.93;;;;;;;26.04;29.68;100804.47;4955473;28;20142;-89
2022/04/15 11:54:33;;;;;;;32.88;13.35;;;;;;;26.17;29.70;100804.06;4970836;28;20565;-91
2022/04/15 11:57:00;;;;;;;34.65;14.05;;;;;;;25.86;31.01;100800.19;4941408;29;20117;-90
2022/04/15 11:59:27;;;;;;;30.45;13.15;;;;;;;25.65;31.28;100790.22;4948752;28;20031;-88
2022/04/15 12:01:53;;;;;;;38.38;13.45;;;;;;;25.42;32.46;100793.16;4967655;28;20035;-84